createdAt,value
2023-01-31T00:00:30.788Z,15.23
2023-01-31T00:03:00.540Z,14.93
2023-01-31T00:05:28.808Z,12.73
2023-01-31T00:07:57.094Z,13.30
2023-01-31T00:10:25.370Z,12.03
2023-01-31T00:12:53.638Z,12.90
2023-01-31T00:15:22.047Z,11.17
2023-01-31T00:17:50.511Z,12.93
2023-01-31T00:20:20.422Z,13.33
2023-01-31T00:22:48.679Z,16.07
2023-01-31T00:25:17.121Z,12.53
2023-01-31T00:27:45.543Z,13.93
2023-01-31T00:30:14.076Z,16.27
2023-01-31T00:32:42.323Z,19.30
2023-01-31T00:35:10.824Z,15.77
2023-01-31T00:37:40.882Z,19.57
2023-01-31T00:40:10.273Z,16.87
2023-01-31T00:42:38.880Z,14.63
2023-01-31T00:45:08.175Z,17.00
2023-01-31T00:47:36.986Z,18.70
2023-01-31T00:50:05.986Z,19.80
2023-01-31T00:52:35.176Z,17.33
2023-01-31T00:55:05.182Z,17.93
2023-01-31T00:57:33.981Z,19.17
2023-01-31T01:00:02.524Z,15.30
2023-01-31T01:02:30.827Z,14.00
2023-01-31T01:04:59.043Z,15.07
2023-01-31T01:07:27.330Z,12.60
2023-01-31T01:09:56.401Z,18.53
2023-01-31T01:12:26.151Z,18.53
2023-01-31T01:14:54.460Z,16.53
2023-01-31T01:17:22.709Z,18.43
2023-01-31T01:19:51.083Z,16.37
2023-01-31T01:22:19.302Z,17.10
2023-01-31T01:24:47.728Z,15.20
2023-01-31T01:27:15.998Z,14.97
2023-01-31T01:29:45.599Z,13.83
2023-01-31T01:32:13.867Z,15.17
2023-01-31T01:34:42.139Z,10.27
2023-01-31T01:37:12.042Z,13.97
2023-01-31T01:39:40.352Z,11.17
2023-01-31T01:42:14.427Z,13.10
2023-01-31T01:44:49.502Z,15.30
2023-01-31T01:47:21.690Z,13.37
2023-01-31T01:49:51.301Z,9.83
2023-01-31T01:52:19.622Z,13.47
2023-01-31T01:54:54.228Z,9.40
2023-01-31T01:57:24.353Z,9.40
2023-01-31T01:59:56.338Z,12.47
2023-01-31T02:02:24.635Z,13.50
2023-01-31T02:04:52.909Z,9.50
2023-01-31T02:07:21.168Z,9.07
2023-01-31T02:09:52.656Z,15.07
2023-01-31T02:12:21.021Z,12.73
2023-01-31T02:14:49.252Z,16.90
2023-01-31T02:17:19.610Z,13.37
2023-01-31T02:19:53.866Z,7.00
2023-01-31T02:22:23.950Z,10.33
2023-01-31T02:25:25.637Z,17.47
2023-01-31T02:28:18.967Z,12.97
2023-01-31T02:31:23.214Z,13.17
2023-01-31T02:33:54.202Z,10.97
2023-01-31T02:36:28.857Z,10.40
2023-01-31T02:39:01.432Z,9.63
2023-01-31T02:41:34.266Z,11.07
2023-01-31T02:44:24.837Z,9.27
2023-01-31T02:46:56.589Z,9.93
2023-01-31T02:49:35.631Z,12.87
2023-01-31T02:52:19.203Z,8.03
2023-01-31T02:55:19.552Z,12.10
2023-01-31T02:57:47.961Z,12.43
2023-01-31T03:00:16.381Z,14.43
2023-01-31T03:02:44.765Z,10.90
2023-01-31T03:05:16.256Z,12.70
2023-01-31T03:07:45.025Z,17.73
2023-01-31T03:10:31.233Z,13.90
2023-01-31T03:13:04.142Z,14.70
2023-01-31T03:16:10.449Z,11.63
2023-01-31T03:18:42.208Z,14.83
2023-01-31T03:21:14.315Z,17.40
2023-01-31T03:23:43.515Z,9.97
2023-01-31T03:26:12.411Z,9.53
2023-01-31T03:28:42.335Z,10.53
2023-01-31T03:31:15.103Z,10.83
2023-01-31T03:33:44.850Z,6.80
2023-01-31T03:36:19.559Z,11.43
2023-01-31T03:38:51.728Z,13.87
2023-01-31T03:41:24.026Z,14.50
2023-01-31T03:43:55.817Z,9.33
2023-01-31T03:46:25.946Z,13.33
2023-01-31T03:48:55.034Z,12.13
2023-01-31T03:51:26.115Z,10.07
2023-01-31T03:53:55.194Z,12.07
2023-01-31T03:56:25.713Z,8.40
2023-01-31T03:58:55.881Z,5.87
2023-01-31T04:01:24.595Z,7.37
2023-01-31T04:03:53.649Z,7.83
2023-01-31T04:06:21.879Z,10.63
2023-01-31T04:08:51.489Z,16.63
2023-01-31T04:11:21.684Z,12.60
2023-01-31T04:13:49.959Z,14.37
2023-01-31T04:16:18.484Z,8.90
2023-01-31T04:18:46.805Z,8.90
2023-01-31T04:21:15.456Z,10.83
2023-01-31T04:23:43.704Z,7.63
2023-01-31T04:26:13.417Z,15.87
2023-01-31T04:28:42.028Z,8.43
2023-01-31T04:31:10.799Z,12.10
2023-01-31T04:33:39.106Z,15.90
2023-01-31T04:36:08.993Z,11.00
2023-01-31T04:38:37.318Z,10.40
2023-01-31T04:41:06.177Z,14.13
2023-01-31T04:43:35.809Z,11.30
2023-01-31T04:46:04.216Z,13.73
2023-01-31T04:48:33.008Z,16.03
2023-01-31T04:51:01.435Z,10.93
2023-01-31T04:53:29.749Z,12.63
2023-01-31T04:55:58.063Z,15.17
2023-01-31T04:58:26.332Z,9.70
2023-01-31T05:00:56.758Z,15.43
2023-01-31T05:03:25.143Z,16.37
2023-01-31T05:05:53.457Z,10.10
2023-01-31T05:08:21.673Z,12.97
2023-01-31T05:10:49.992Z,10.47
2023-01-31T05:13:18.204Z,18.17
2023-01-31T05:15:49.834Z,12.27
2023-01-31T05:18:19.472Z,13.20
2023-01-31T05:20:50.160Z,7.57
2023-01-31T05:23:18.617Z,12.73
2023-01-31T05:25:46.885Z,17.00
2023-01-31T05:28:15.229Z,13.23
2023-01-31T05:30:43.651Z,18.53
2023-01-31T05:33:11.988Z,15.73
2023-01-31T05:35:42.509Z,14.37
2023-01-31T05:38:10.794Z,13.33
2023-01-31T05:40:39.053Z,16.93
2023-01-31T05:43:07.366Z,17.00
2023-01-31T05:45:35.622Z,18.57
2023-01-31T05:48:04.054Z,18.13
2023-01-31T05:50:32.299Z,8.87
2023-01-31T05:53:03.249Z,8.53
2023-01-31T05:55:31.502Z,12.23
2023-01-31T05:58:01.458Z,11.23
2023-01-31T06:00:29.812Z,10.37
2023-01-31T06:03:00.078Z,13.33
2023-01-31T06:05:28.543Z,13.03
2023-01-31T06:07:57.000Z,15.53
2023-01-31T06:10:26.915Z,13.17
2023-01-31T06:12:55.224Z,10.33
2023-01-31T06:15:23.500Z,13.63
2023-01-31T06:17:51.741Z,18.20
2023-01-31T06:20:20.167Z,14.37
2023-01-31T06:22:48.399Z,17.10
2023-01-31T06:25:16.670Z,11.97
2023-01-31T06:27:46.318Z,14.17
2023-01-31T06:30:15.266Z,18.37
2023-01-31T06:32:43.614Z,16.50
2023-01-31T06:35:11.915Z,12.80
2023-01-31T06:37:40.265Z,20.43
2023-01-31T06:40:09.355Z,22.67
2023-01-31T06:42:37.593Z,18.03
2023-01-31T06:45:08.360Z,15.90
2023-01-31T06:47:36.584Z,14.13
2023-01-31T06:50:05.073Z,27.37
2023-01-31T06:52:33.689Z,13.40
2023-01-31T06:55:01.927Z,14.73
2023-01-31T06:57:30.404Z,14.60
2023-01-31T06:59:58.677Z,18.40
2023-01-31T07:02:28.405Z,12.83
2023-01-31T07:04:56.844Z,16.07
2023-01-31T07:07:25.164Z,16.20
2023-01-31T07:09:54.007Z,14.40
2023-01-31T07:12:22.269Z,13.47
2023-01-31T07:14:50.511Z,11.57
2023-01-31T07:17:21.158Z,10.87
2023-01-31T07:19:51.375Z,17.40
2023-01-31T07:22:20.011Z,19.00
2023-01-31T07:24:49.622Z,17.97
2023-01-31T07:27:18.076Z,12.80
2023-01-31T07:29:46.328Z,17.30
2023-01-31T07:32:14.672Z,16.83
2023-01-31T07:34:42.941Z,19.27
2023-01-31T07:37:12.627Z,18.93
2023-01-31T07:39:40.871Z,19.23
2023-01-31T07:42:09.261Z,19.73
2023-01-31T07:44:37.510Z,16.73
2023-01-31T07:47:05.841Z,18.23
2023-01-31T07:49:34.146Z,20.30
2023-01-31T07:52:03.211Z,17.47
2023-01-31T07:54:33.201Z,17.50
2023-01-31T07:57:01.491Z,18.60
2023-01-31T07:59:29.865Z,12.40
2023-01-31T08:02:15.338Z,16.77
2023-01-31T08:04:43.598Z,17.43
2023-01-31T08:07:11.876Z,10.70
2023-01-31T08:09:43.684Z,16.23
2023-01-31T08:12:12.494Z,13.13
2023-01-31T08:14:40.802Z,14.17
2023-01-31T08:17:09.326Z,17.07
2023-01-31T08:19:37.786Z,13.27
2023-01-31T08:22:06.168Z,12.03
2023-01-31T08:24:34.533Z,15.60
2023-01-31T08:27:04.205Z,15.27
2023-01-31T08:29:32.895Z,14.77
2023-01-31T08:32:02.986Z,15.47
2023-01-31T08:34:31.570Z,14.30
2023-01-31T08:37:01.070Z,16.60
2023-01-31T08:39:29.407Z,11.17
2023-01-31T08:41:57.645Z,10.37
2023-01-31T08:44:27.293Z,18.23
2023-01-31T08:46:55.622Z,14.27
2023-01-31T08:49:23.858Z,14.47
2023-01-31T08:51:52.151Z,15.13
2023-01-31T08:54:20.363Z,12.70
2023-01-31T08:56:48.708Z,12.00
2023-01-31T08:59:16.953Z,23.53
2023-01-31T09:01:46.861Z,16.20
2023-01-31T09:04:15.159Z,19.27
2023-01-31T09:06:43.430Z,13.70
2023-01-31T09:09:11.906Z,17.33
2023-01-31T09:11:40.757Z,11.27
2023-01-31T09:14:09.025Z,13.07
2023-01-31T09:16:37.369Z,14.20
2023-01-31T09:19:06.991Z,16.47
2023-01-31T09:21:35.718Z,14.03
2023-01-31T09:24:04.080Z,16.30
2023-01-31T09:26:32.510Z,10.80
2023-01-31T09:29:01.636Z,11.50
2023-01-31T09:31:30.455Z,13.00
2023-01-31T09:33:59.249Z,12.53
2023-01-31T09:36:30.141Z,8.50
2023-01-31T09:38:58.710Z,14.40
2023-01-31T09:41:30.845Z,10.97
2023-01-31T09:44:01.370Z,10.40
2023-01-31T09:46:32.399Z,16.23
2023-01-31T09:49:01.190Z,16.93
2023-01-31T09:51:31.038Z,11.23
2023-01-31T09:53:59.317Z,15.97
2023-01-31T09:56:33.267Z,10.13
2023-01-31T09:59:04.584Z,8.20
2023-01-31T10:01:36.457Z,16.03
2023-01-31T10:04:16.100Z,9.73
2023-01-31T10:06:49.241Z,11.43
2023-01-31T10:09:21.673Z,13.67
2023-01-31T10:11:52.418Z,9.33
2023-01-31T10:14:23.659Z,8.13
2023-01-31T10:16:58.098Z,10.07
2023-01-31T10:19:27.955Z,11.27
2023-01-31T10:21:58.630Z,14.63
2023-01-31T10:24:29.264Z,14.50
2023-01-31T10:27:01.680Z,14.03
2023-01-31T10:29:32.756Z,11.23
2023-01-31T10:32:02.628Z,11.70
2023-01-31T10:34:32.706Z,15.53
2023-01-31T10:37:05.379Z,11.80
2023-01-31T10:39:34.653Z,11.00
2023-01-31T10:42:11.577Z,13.43
2023-01-31T10:44:48.048Z,8.87
2023-01-31T10:47:17.015Z,8.10
2023-01-31T10:49:46.559Z,13.60
2023-01-31T10:52:38.258Z,13.47
2023-01-31T10:55:24.992Z,10.93
2023-01-31T10:57:53.290Z,11.03
2023-01-31T11:00:23.862Z,12.30
2023-01-31T11:02:52.398Z,15.40
2023-01-31T11:05:21.995Z,8.37
2023-01-31T11:07:51.674Z,15.67
2023-01-31T11:10:24.093Z,11.67
2023-01-31T11:12:56.274Z,18.63
2023-01-31T11:15:25.822Z,12.60
2023-01-31T11:17:54.081Z,11.47
2023-01-31T11:20:26.731Z,10.70
2023-01-31T11:22:56.836Z,14.53
2023-01-31T11:25:25.827Z,8.80
2023-01-31T11:27:54.942Z,11.03
2023-01-31T11:30:24.598Z,8.83
2023-01-31T11:32:53.078Z,9.07
2023-01-31T11:35:26.768Z,12.43
2023-01-31T11:37:57.158Z,12.40
2023-01-31T11:40:30.443Z,11.47
2023-01-31T11:42:59.661Z,11.80
2023-01-31T11:45:28.886Z,15.70
2023-01-31T11:47:58.408Z,9.73
2023-01-31T11:50:28.339Z,13.10
2023-01-31T11:52:58.896Z,9.17
2023-01-31T11:55:27.141Z,11.97
2023-01-31T11:57:59.845Z,13.17
2023-01-31T12:00:29.353Z,10.70
2023-01-31T12:03:02.470Z,10.27
2023-01-31T12:05:37.452Z,11.33
2023-01-31T12:08:07.248Z,9.70
2023-01-31T12:10:41.422Z,8.93
2023-01-31T12:13:19.166Z,12.40
2023-01-31T12:15:50.233Z,12.87
2023-01-31T12:18:21.636Z,10.60
2023-01-31T12:20:52.618Z,14.57
2023-01-31T12:23:27.867Z,16.37
2023-01-31T12:26:02.950Z,11.73
2023-01-31T12:28:39.019Z,10.63
2023-01-31T12:31:24.199Z,10.33
2023-01-31T12:34:02.683Z,10.53
2023-01-31T12:36:40.190Z,9.13
2023-01-31T12:39:27.592Z,9.97
2023-01-31T12:42:02.389Z,11.67
2023-01-31T12:44:38.836Z,10.30
2023-01-31T12:47:20.105Z,5.93
2023-01-31T12:50:04.643Z,9.03
2023-01-31T12:52:37.675Z,9.00
2023-01-31T12:55:15.760Z,11.57
2023-01-31T12:57:45.849Z,12.97
2023-01-31T13:00:23.118Z,8.07
2023-01-31T13:02:58.795Z,8.40
2023-01-31T13:05:29.063Z,10.37
2023-01-31T13:07:59.466Z,6.87
2023-01-31T13:10:34.930Z,14.07
2023-01-31T13:13:03.255Z,11.30
2023-01-31T13:15:34.103Z,10.90
2023-01-31T13:18:04.752Z,8.60
2023-01-31T13:20:35.713Z,10.87
2023-01-31T13:23:05.669Z,9.37
2023-01-31T13:25:38.872Z,6.63
2023-01-31T13:28:11.381Z,16.73
2023-01-31T13:30:42.705Z,9.30
2023-01-31T13:33:19.255Z,13.37
2023-01-31T13:35:47.723Z,13.30
2023-01-31T13:38:18.342Z,10.20
2023-01-31T13:40:51.320Z,9.93
2023-01-31T13:43:21.170Z,14.30
2023-01-31T13:45:52.836Z,14.27
2023-01-31T13:48:25.703Z,13.57
2023-01-31T13:50:55.511Z,14.00
2023-01-31T13:53:25.350Z,11.83
2023-01-31T13:55:55.420Z,14.30
2023-01-31T13:58:24.807Z,10.43
2023-01-31T14:00:59.455Z,15.57
2023-01-31T14:03:27.724Z,11.23
2023-01-31T14:06:00.845Z,12.37
2023-01-31T14:08:31.098Z,18.13
2023-01-31T14:11:01.139Z,23.47
2023-01-31T14:13:40.181Z,14.73
2023-01-31T14:16:46.423Z,32.63
2023-01-31T14:19:55.332Z,53.83
2023-01-31T14:22:26.130Z,29.63
2023-01-31T14:24:58.511Z,34.57
2023-01-31T14:27:29.411Z,52.63
2023-01-31T14:30:00.518Z,36.63
2023-01-31T14:32:31.472Z,34.07
2023-01-31T14:34:59.914Z,51.83
2023-01-31T14:37:34.697Z,28.80
2023-01-31T14:40:17.160Z,19.27
2023-01-31T14:43:05.279Z,19.10
2023-01-31T14:45:42.780Z,15.67
2023-01-31T14:48:30.115Z,17.03
2023-01-31T14:51:09.714Z,16.97
2023-01-31T14:53:57.235Z,14.70
2023-01-31T14:56:35.536Z,15.17
2023-01-31T14:59:05.710Z,13.80
2023-01-31T15:01:35.034Z,15.57
2023-01-31T15:04:03.799Z,13.83
2023-01-31T15:06:33.821Z,17.10
2023-01-31T15:09:29.325Z,16.50
2023-01-31T15:11:58.190Z,16.30
2023-01-31T15:14:45.259Z,14.03
2023-01-31T15:17:33.042Z,19.47
2023-01-31T15:20:08.559Z,12.60
2023-01-31T15:22:38.500Z,12.27
2023-01-31T15:25:09.762Z,15.40
2023-01-31T15:27:39.337Z,12.50
2023-01-31T15:30:13.607Z,14.57
2023-01-31T15:32:45.710Z,12.37
2023-01-31T15:35:15.819Z,14.80
2023-01-31T15:37:44.146Z,14.57
2023-01-31T15:40:19.590Z,14.00
2023-01-31T15:42:47.951Z,16.43
2023-01-31T15:45:27.808Z,14.93
2023-01-31T15:47:57.757Z,16.37
2023-01-31T15:50:29.597Z,16.93
2023-01-31T15:52:58.289Z,12.73
2023-01-31T15:55:26.599Z,15.80
2023-01-31T15:57:57.654Z,16.70
2023-01-31T16:00:30.056Z,17.23
2023-01-31T16:03:01.802Z,17.27
2023-01-31T16:05:32.404Z,24.83
2023-01-31T16:08:01.414Z,25.23
2023-01-31T16:10:30.181Z,22.70
2023-01-31T16:12:59.458Z,22.10
2023-01-31T16:15:30.428Z,23.67
2023-01-31T16:17:59.936Z,22.27
2023-01-31T16:20:49.594Z,19.17
2023-01-31T16:23:25.711Z,23.83
2023-01-31T16:25:56.558Z,20.13
2023-01-31T16:28:25.172Z,23.30
2023-01-31T16:30:55.050Z,23.13
2023-01-31T16:33:25.065Z,23.07
2023-01-31T16:36:12.796Z,27.90
2023-01-31T16:38:43.628Z,23.87
2023-01-31T16:41:13.215Z,27.70
2023-01-31T16:43:41.952Z,26.97
2023-01-31T16:46:20.548Z,25.20
2023-01-31T16:49:02.559Z,25.27
2023-01-31T16:51:42.085Z,26.93
2023-01-31T16:54:22.190Z,26.53
2023-01-31T16:57:07.174Z,27.07
2023-01-31T16:59:45.533Z,29.03
2023-01-31T17:02:19.220Z,26.90
2023-01-31T17:04:47.612Z,25.60
2023-01-31T17:07:18.009Z,25.40
2023-01-31T17:09:46.997Z,26.07
2023-01-31T17:12:21.169Z,24.63
2023-01-31T17:14:49.559Z,28.97
2023-01-31T17:17:21.997Z,29.83
2023-01-31T17:19:50.733Z,24.53
2023-01-31T17:22:19.264Z,26.43
2023-01-31T17:24:48.026Z,31.47
2023-01-31T17:27:16.825Z,33.40
2023-01-31T17:29:47.544Z,34.17
2023-01-31T17:32:16.449Z,30.87
2023-01-31T17:34:46.336Z,43.93
2023-01-31T17:37:18.077Z,38.00
2023-01-31T17:39:49.004Z,42.37
2023-01-31T17:42:18.479Z,39.87
2023-01-31T17:44:46.787Z,42.03
2023-01-31T17:47:15.290Z,34.60
2023-01-31T17:49:45.769Z,32.30
2023-01-31T17:52:14.180Z,33.07
2023-01-31T17:54:42.525Z,36.90
2023-01-31T17:57:10.887Z,30.83
2023-01-31T17:59:39.232Z,29.83
2023-01-31T18:02:07.945Z,28.50
2023-01-31T18:04:36.444Z,31.40
2023-01-31T18:07:06.603Z,27.70
2023-01-31T18:09:35.045Z,26.77
2023-01-31T18:12:03.789Z,26.03
2023-01-31T18:14:32.288Z,29.63
2023-01-31T18:17:00.973Z,25.57
2023-01-31T18:19:29.587Z,23.47
2023-01-31T18:21:59.618Z,23.40
2023-01-31T18:24:29.644Z,31.03
2023-01-31T18:26:58.079Z,23.53
2023-01-31T18:29:26.728Z,25.50
2023-01-31T18:31:56.139Z,21.83
2023-01-31T18:34:24.781Z,30.67
2023-01-31T18:36:53.226Z,22.40
2023-01-31T18:39:21.537Z,24.13
2023-01-31T18:41:51.319Z,20.00
2023-01-31T18:44:20.014Z,22.30
2023-01-31T18:46:49.968Z,18.63
2023-01-31T18:49:20.203Z,21.43
2023-01-31T18:51:49.806Z,23.07
2023-01-31T18:54:19.336Z,20.83
2023-01-31T18:56:47.832Z,26.33
2023-01-31T18:59:17.567Z,27.17
2023-01-31T19:01:46.017Z,22.43
2023-01-31T19:04:14.743Z,25.60
2023-01-31T19:06:44.424Z,24.77
2023-01-31T19:09:13.085Z,29.30
2023-01-31T19:11:42.452Z,26.40
2023-01-31T19:14:12.976Z,23.53
2023-01-31T19:16:43.262Z,29.97
2023-01-31T19:19:11.708Z,24.67
2023-01-31T19:21:41.025Z,27.63
2023-01-31T19:24:11.577Z,28.83
2023-01-31T19:26:40.684Z,25.77
2023-01-31T19:29:09.980Z,34.90
2023-01-31T19:31:38.486Z,28.27
2023-01-31T19:34:08.493Z,25.90
2023-01-31T19:36:38.012Z,26.30
2023-01-31T19:39:07.519Z,32.00
2023-01-31T19:41:36.570Z,26.20
2023-01-31T19:44:05.337Z,30.30
2023-01-31T19:46:34.685Z,26.90
2023-01-31T19:49:03.395Z,30.53
2023-01-31T19:51:33.661Z,26.83
2023-01-31T19:54:03.020Z,27.90
2023-01-31T19:56:31.568Z,19.50
2023-01-31T19:59:00.121Z,26.83
2023-01-31T20:01:28.510Z,21.83
2023-01-31T20:03:57.326Z,24.93
2023-01-31T20:06:27.577Z,17.47
2023-01-31T20:08:58.617Z,19.60
2023-01-31T20:11:27.955Z,20.47
2023-01-31T20:13:58.138Z,18.53
2023-01-31T20:16:26.679Z,19.97
2023-01-31T20:18:56.588Z,18.13
2023-01-31T20:21:25.091Z,19.77
2023-01-31T20:23:53.455Z,19.83
2023-01-31T20:26:24.993Z,17.73
2023-01-31T20:28:53.608Z,17.83
2023-01-31T20:31:22.731Z,15.10
2023-01-31T20:33:52.798Z,19.13
2023-01-31T20:36:23.824Z,18.67
2023-01-31T20:38:52.551Z,16.37
2023-01-31T20:41:23.407Z,19.77
2023-01-31T20:43:51.759Z,17.57
2023-01-31T20:46:20.576Z,19.90
2023-01-31T20:48:49.091Z,16.43
2023-01-31T20:51:17.534Z,15.80
2023-01-31T20:53:46.066Z,20.60
2023-01-31T20:56:14.499Z,20.60
2023-01-31T20:58:44.546Z,17.07
2023-01-31T21:01:13.142Z,19.60
2023-01-31T21:03:41.566Z,15.57
2023-01-31T21:06:10.142Z,20.90
2023-01-31T21:08:40.320Z,23.40
2023-01-31T21:11:10.162Z,20.57
2023-01-31T21:13:38.671Z,18.80
2023-01-31T21:16:09.588Z,21.90
2023-01-31T21:18:38.825Z,19.67
2023-01-31T21:21:09.016Z,22.43
2023-01-31T21:23:37.593Z,18.57
2023-01-31T21:26:06.758Z,18.03
2023-01-31T21:28:35.101Z,24.03
2023-01-31T21:31:04.216Z,20.37
2023-01-31T21:33:33.996Z,25.07
2023-01-31T21:36:08.706Z,20.47
2023-01-31T21:38:37.104Z,22.97
2023-01-31T21:41:23.159Z,21.30
2023-01-31T21:43:51.558Z,21.17
2023-01-31T21:46:19.975Z,21.70
2023-01-31T21:48:49.804Z,19.13
2023-01-31T21:51:18.847Z,16.77
2023-01-31T21:53:47.209Z,19.07
2023-01-31T21:56:16.248Z,20.60
2023-01-31T21:58:44.551Z,15.60
2023-01-31T22:01:13.896Z,17.10
2023-01-31T22:03:43.610Z,18.07
2023-01-31T22:06:14.343Z,16.67
2023-01-31T22:08:42.723Z,19.47
2023-01-31T22:11:12.066Z,18.50
2023-01-31T22:13:40.650Z,19.03
2023-01-31T22:16:10.035Z,18.77
2023-01-31T22:18:38.572Z,19.80
2023-01-31T22:21:07.772Z,19.27
2023-01-31T22:23:38.037Z,22.17
2023-01-31T22:26:07.365Z,18.37
2023-01-31T22:28:36.058Z,20.47
2023-01-31T22:31:04.985Z,21.30
2023-01-31T22:33:33.433Z,20.30
2023-01-31T22:36:02.051Z,20.70
2023-01-31T22:38:30.303Z,23.83
2023-01-31T22:41:00.275Z,23.17
2023-01-31T22:43:28.593Z,22.00
2023-01-31T22:45:57.590Z,19.03
2023-01-31T22:48:26.213Z,16.93
2023-01-31T22:50:57.979Z,19.33
2023-01-31T22:53:26.327Z,18.70
2023-01-31T22:55:54.685Z,22.07
2023-01-31T22:58:24.399Z,19.50
2023-01-31T23:00:52.741Z,18.57
2023-01-31T23:03:21.016Z,18.53
2023-01-31T23:05:49.354Z,16.67
2023-01-31T23:08:17.711Z,19.00
2023-01-31T23:10:46.310Z,17.47
2023-01-31T23:13:14.615Z,26.13
2023-01-31T23:15:44.270Z,21.20
2023-01-31T23:18:16.032Z,17.80
2023-01-31T23:20:44.269Z,16.03
2023-01-31T23:23:12.544Z,20.20
2023-01-31T23:25:41.118Z,18.23
2023-01-31T23:28:09.633Z,14.50
2023-01-31T23:30:37.974Z,15.63
2023-01-31T23:33:07.800Z,13.57
2023-01-31T23:35:36.050Z,15.53
2023-01-31T23:38:04.366Z,18.27
2023-01-31T23:40:32.689Z,17.17
2023-01-31T23:43:00.935Z,18.67
2023-01-31T23:45:29.176Z,13.10
2023-01-31T23:47:57.841Z,14.23
2023-01-31T23:50:27.545Z,13.30
2023-01-31T23:52:55.833Z,11.63
2023-01-31T23:55:24.081Z,13.80
2023-01-31T23:57:52.379Z,14.30
